sensor_id;sensor_type;location;lat;lon;timestamp;pressure;altitude;pressure_sealevel;temperature;humidity
10348;BME280;5220;43.192;23.284;2023-04-08T00:01:58;97115.81;;;7.45;100.00
10348;BME280;5220;43.192;23.284;2023-04-08T00:04:25;97113.34;;;7.44;100.00
10348;BME280;5220;43.192;23.284;2023-04-08T00:06:51;97121.66;;;7.19;100.00
10348;BME280;5220;43.192;23.284;2023-04-08T00:09:18;97128.47;;;7.36;100.00
10348;BME280;5220;43.192;23.284;2023-04-08T00:11:45;97119.50;;;7.41;100.00
10348;BME280;5220;43.192;23.284;2023-04-08T00:14:13;97121.00;;;7.45;100.00
10348;BME280;5220;43.192;23.284;2023-04-08T00:16:40;97118.50;;;7.44;100.00
10348;BME280;5220;43.192;23.284;2023-04-08T00:19:07;97116.00;;;7.42;100.00
10348;BME280;5220;43.192;23.284;2023-04-08T00:21:34;97121.44;;;7.38;100.00
10348;BME280;5220;43.192;23.284;2023-04-08T00:24:00;97124.78;;;7.40;100.00
10348;BME280;5220;43.192;23.284;2023-04-08T00:26:27;97119.50;;;7.41;100.00
10348;BME280;5220;43.192;23.284;2023-04-08T00:28:55;97115.25;;;7.40;100.00
10348;BME280;5220;43.192;23.284;2023-04-08T00:31:23;97121.19;;;7.42;100.00
10348;BME280;5220;43.192;23.284;2023-04-08T00:33:50;97121.72;;;7.33;100.00
10348;BME280;5220;43.192;23.284;2023-04-08T00:36:16;97113.78;;;7.36;100.00
10348;BME280;5220;43.192;23.284;2023-04-08T00:38:43;97106.19;;;7.33;100.00
10348;BME280;5220;43.192;23.284;2023-04-08T00:41:10;97107.09;;;7.32;100.00
10348;BME280;5220;43.192;23.284;2023-04-08T00:43:37;97100.00;;;7.36;100.00
10348;BME280;5220;43.192;23.284;2023-04-08T00:46:03;97106.19;;;7.33;100.00
10348;BME280;5220;43.192;23.284;2023-04-08T00:48:32;97105.97;;;7.22;100.00
10348;BME280;5220;43.192;23.284;2023-04-08T00:50:59;97107.19;;;7.31;100.00
10348;BME280;5220;43.192;23.284;2023-04-08T00:53:26;97107.75;;;7.36;100.00
10348;BME280;5220;43.192;23.284;2023-04-08T00:55:53;97111.84;;;7.40;100.00
10348;BME280;5220;43.192;23.284;2023-04-08T00:58:20;97104.25;;;7.37;100.00
10348;BME280;5220;43.192;23.284;2023-04-08T01:00:50;97114.13;;;7.30;100.00
10348;BME280;5220;43.192;23.284;2023-04-08T01:03:28;97111.91;;;7.38;100.00
10348;BME280;5220;43.192;23.284;2023-04-08T01:06:06;97114.44;;;7.40;100.00
10348;BME280;5220;43.192;23.284;2023-04-08T01:08:37;97112.69;;;7.40;100.00
10348;BME280;5220;43.192;23.284;2023-04-08T01:11:09;97119.53;;;7.26;100.00
10348;BME280;5220;43.192;23.284;2023-04-08T01:13:39;97110.53;;;7.33;100.00
10348;BME280;5220;43.192;23.284;2023-04-08T01:16:09;97116.34;;;7.36;100.00
10348;BME280;5220;43.192;23.284;2023-04-08T01:18:37;97110.53;;;7.33;100.00
10348;BME280;5220;43.192;23.284;2023-04-08T01:21:06;97118.06;;;7.22;100.00
10348;BME280;5220;43.192;23.284;2023-04-08T01:23:40;97104.59;;;7.31;100.00
10348;BME280;5220;43.192;23.284;2023-04-08T01:26:11;97108.94;;;7.30;100.00
10348;BME280;5220;43.192;23.284;2023-04-08T01:28:39;97112.38;;;7.31;100.00
10348;BME280;5220;43.192;23.284;2023-04-08T01:31:08;97119.47;;;7.27;100.00
10348;BME280;5220;43.192;23.284;2023-04-08T01:33:36;97122.78;;;7.29;100.00
10348;BME280;5220;43.192;23.284;2023-04-08T01:36:03;97118.63;;;7.27;100.00
10348;BME280;5220;43.192;23.284;2023-04-08T01:38:32;97116.03;;;7.27;100.00
10348;BME280;5220;43.192;23.284;2023-04-08T01:41:00;97120.31;;;7.28;100.00
10348;BME280;5220;43.192;23.284;2023-04-08T01:43:28;97121.22;;;7.27;100.00
10348;BME280;5220;43.192;23.284;2023-04-08T01:45:57;97124.66;;;7.27;100.00
10348;BME280;5220;43.192;23.284;2023-04-08T01:48:24;97128.25;;;7.25;100.00
10348;BME280;5220;43.192;23.284;2023-04-08T01:50:52;97129.25;;;7.22;100.00
10348;BME280;5220;43.192;23.284;2023-04-08T01:53:20;97129.34;;;7.21;100.00
10348;BME280;5220;43.192;23.284;2023-04-08T01:55:51;97141.44;;;7.20;100.00
10348;BME280;5220;43.192;23.284;2023-04-08T01:58:21;97124.34;;;7.18;100.00
10348;BME280;5220;43.192;23.284;2023-04-08T02:00:50;97135.41;;;7.20;100.00
10348;BME280;5220;43.192;23.284;2023-04-08T02:03:20;97141.28;;;7.08;100.00
10348;BME280;5220;43.192;23.284;2023-04-08T02:05:49;97146.94;;;7.14;100.00
10348;BME280;5220;43.192;23.284;2023-04-08T02:08:16;97145.09;;;7.16;100.00
10348;BME280;5220;43.192;23.284;2023-04-08T02:10:43;97154.63;;;7.16;100.00
10348;BME280;5220;43.192;23.284;2023-04-08T02:13:09;97152.13;;;7.14;100.00
10348;BME280;5220;43.192;23.284;2023-04-08T02:15:39;97154.81;;;7.13;100.00
10348;BME280;5220;43.192;23.284;2023-04-08T02:18:12;97158.22;;;7.13;100.00
10348;BME280;5220;43.192;23.284;2023-04-08T02:20:43;97155.78;;;7.10;100.00
10348;BME280;5220;43.192;23.284;2023-04-08T02:23:13;97161.75;;;7.12;100.00
10348;BME280;5220;43.192;23.284;2023-04-08T02:25:43;97153.22;;;7.10;100.00
10348;BME280;5220;43.192;23.284;2023-04-08T02:28:11;97156.13;;;7.04;100.00
10348;BME280;5220;43.192;23.284;2023-04-08T02:30:41;97160.41;;;7.05;100.00
10348;BME280;5220;43.192;23.284;2023-04-08T02:33:10;97160.50;;;7.03;100.00
10348;BME280;5220;43.192;23.284;2023-04-08T02:35:39;97163.16;;;7.02;100.00
10348;BME280;5220;43.192;23.284;2023-04-08T02:38:08;97162.16;;;7.04;100.00
10348;BME280;5220;43.192;23.284;2023-04-08T02:40:35;97161.41;;;7.02;100.00
10348;BME280;5220;43.192;23.284;2023-04-08T02:43:02;97163.91;;;7.04;100.00
10348;BME280;5220;43.192;23.284;2023-04-08T02:45:39;97164.00;;;7.02;100.00
10348;BME280;5220;43.192;23.284;2023-04-08T02:48:06;97162.09;;;7.06;100.00
10348;BME280;5220;43.192;23.284;2023-04-08T02:50:35;97161.31;;;7.04;100.00
10348;BME280;5220;43.192;23.284;2023-04-08T02:53:02;97157.66;;;7.08;100.00
10348;BME280;5220;43.192;23.284;2023-04-08T02:55:28;97160.34;;;7.07;100.00
10348;BME280;5220;43.192;23.284;2023-04-08T02:57:55;97155.97;;;7.07;100.00
10348;BME280;5220;43.192;23.284;2023-04-08T03:00:22;97159.66;;;7.03;100.00
10348;BME280;5220;43.192;23.284;2023-04-08T03:02:48;97163.00;;;7.05;100.00
10348;BME280;5220;43.192;23.284;2023-04-08T03:05:15;97162.09;;;7.06;100.00
10348;BME280;5220;43.192;23.284;2023-04-08T03:07:43;97164.66;;;7.06;100.00
10348;BME280;5220;43.192;23.284;2023-04-08T03:10:10;97167.31;;;7.04;100.00
10348;BME280;5220;43.192;23.284;2023-04-08T03:12:37;97159.56;;;7.04;100.00
10348;BME280;5220;43.192;23.284;2023-04-08T03:15:04;97158.66;;;7.06;100.00
10348;BME280;5220;43.192;23.284;2023-04-08T03:17:31;97160.50;;;7.03;100.00
10348;BME280;5220;43.192;23.284;2023-04-08T03:19:58;97157.06;;;7.03;100.00
10348;BME280;5220;43.192;23.284;2023-04-08T03:22:25;97159.72;;;7.01;100.00
10348;BME280;5220;43.192;23.284;2023-04-08T03:24:53;97166.00;;;6.97;100.00
10348;BME280;5220;43.192;23.284;2023-04-08T03:27:20;97158.16;;;6.99;100.00
10348;BME280;5220;43.192;23.284;2023-04-08T03:29:47;97157.41;;;6.97;100.00
10348;BME280;5220;43.192;23.284;2023-04-08T03:32:13;97161.59;;;6.99;100.00
10348;BME280;5220;43.192;23.284;2023-04-08T03:34:40;97160.66;;;7.00;100.00
10348;BME280;5220;43.192;23.284;2023-04-08T03:37:07;97153.81;;;6.99;100.00
10348;BME280;5220;43.192;23.284;2023-04-08T03:39:33;97160.66;;;7.00;100.00
10348;BME280;5220;43.192;23.284;2023-04-08T03:42:01;97164.84;;;7.03;100.00
10348;BME280;5220;43.192;23.284;2023-04-08T03:44:28;97166.47;;;7.04;100.00
10348;BME280;5220;43.192;23.284;2023-04-08T03:46:55;97158.16;;;6.99;100.00
10348;BME280;5220;43.192;23.284;2023-04-08T03:49:22;97165.00;;;7.00;100.00
10348;BME280;5220;43.192;23.284;2023-04-08T03:51:49;97166.00;;;6.97;100.00
10348;BME280;5220;43.192;23.284;2023-04-08T03:54:16;97167.84;;;6.95;100.00
10348;BME280;5220;43.192;23.284;2023-04-08T03:56:42;97162.59;;;6.97;100.00
10348;BME280;5220;43.192;23.284;2023-04-08T03:59:10;97161.59;;;6.99;100.00
10348;BME280;5220;43.192;23.284;2023-04-08T04:01:37;97165.19;;;6.97;100.00
10348;BME280;5220;43.192;23.284;2023-04-08T04:04:04;97172.84;;;6.98;100.00
10348;BME280;5220;43.192;23.284;2023-04-08T04:06:30;97172.78;;;7.00;100.00
10348;BME280;5220;43.192;23.284;2023-04-08T04:08:57;97175.53;;;6.97;100.00
10348;BME280;5220;43.192;23.284;2023-04-08T04:11:24;97164.19;;;6.68;100.00
10348;BME280;5220;43.192;23.284;2023-04-08T04:13:51;97172.94;;;6.81;100.00
10348;BME280;5220;43.192;23.284;2023-04-08T04:16:19;97167.34;;;6.89;100.00
10348;BME280;5220;43.192;23.284;2023-04-08T04:18:46;97170.53;;;6.94;100.00
10348;BME280;5220;43.192;23.284;2023-04-08T04:21:13;97163.56;;;6.94;100.00
10348;BME280;5220;43.192;23.284;2023-04-08T04:23:39;97160.00;;;6.97;100.00
10348;BME280;5220;43.192;23.284;2023-04-08T04:26:07;97166.81;;;6.98;100.00
10348;BME280;5220;43.192;23.284;2023-04-08T04:28:35;97173.84;;;6.96;100.00
10348;BME280;5220;43.192;23.284;2023-04-08T04:31:01;97175.59;;;6.95;100.00
10348;BME280;5220;43.192;23.284;2023-04-08T04:33:29;97170.19;;;7.00;100.00
10348;BME280;5220;43.192;23.284;2023-04-08T04:35:56;97182.19;;;7.01;100.00
10348;BME280;5220;43.192;23.284;2023-04-08T04:38:23;97163.16;;;7.02;100.00
10348;BME280;5220;43.192;23.284;2023-04-08T04:40:50;97174.34;;;7.02;100.00
10348;BME280;5220;43.192;23.284;2023-04-08T04:43:16;97165.56;;;7.05;100.00
10348;BME280;5220;43.192;23.284;2023-04-08T04:45:43;97176.66;;;7.07;100.00
10348;BME280;5220;43.192;23.284;2023-04-08T04:48:10;97175.56;;;7.11;100.00
10348;BME280;5220;43.192;23.284;2023-04-08T04:50:38;97174.56;;;7.14;100.00
10348;BME280;5220;43.192;23.284;2023-04-08T04:53:04;97178.84;;;7.15;100.00
10348;BME280;5220;43.192;23.284;2023-04-08T04:55:31;97182.09;;;7.18;100.00
10348;BME280;5220;43.192;23.284;2023-04-08T04:57:58;97179.50;;;7.18;100.00
10348;BME280;5220;43.192;23.284;2023-04-08T05:00:24;97190.50;;;7.22;100.00
10348;BME280;5220;43.192;23.284;2023-04-08T05:02:51;97189.50;;;7.24;100.00
10348;BME280;5220;43.192;23.284;2023-04-08T05:05:18;97192.94;;;7.25;100.00
10348;BME280;5220;43.192;23.284;2023-04-08T05:07:46;97186.81;;;7.26;100.00
10348;BME280;5220;43.192;23.284;2023-04-08T05:10:12;97188.50;;;7.27;100.00
10348;BME280;5220;43.192;23.284;2023-04-08T05:12:39;97190.06;;;7.29;100.00
10348;BME280;5220;43.192;23.284;2023-04-08T05:15:06;97187.16;;;7.20;100.00
10348;BME280;5220;43.192;23.284;2023-04-08T05:17:33;97184.91;;;7.29;100.00
10348;BME280;5220;43.192;23.284;2023-04-08T05:20:00;97183.88;;;7.32;100.00
10348;BME280;5220;43.192;23.284;2023-04-08T05:22:27;97190.50;;;7.37;100.00
10348;BME280;5220;43.192;23.284;2023-04-08T05:24:55;97188.63;;;7.39;100.00
10348;BME280;5220;43.192;23.284;2023-04-08T05:27:22;97196.34;;;7.41;100.00
10348;BME280;5220;43.192;23.284;2023-04-08T05:29:49;97195.97;;;7.47;100.00
10348;BME280;5220;43.192;23.284;2023-04-08T05:32:16;97197.44;;;7.51;100.00
10348;BME280;5220;43.192;23.284;2023-04-08T05:34:42;97198.13;;;7.54;100.00
10348;BME280;5220;43.192;23.284;2023-04-08T05:37:09;97200.88;;;7.51;100.00
10348;BME280;5220;43.192;23.284;2023-04-08T05:39:36;97195.53;;;7.54;100.00
10348;BME280;5220;43.192;23.284;2023-04-08T05:42:04;97200.94;;;7.66;100.00
10348;BME280;5220;43.192;23.284;2023-04-08T05:44:31;97200.22;;;7.78;100.00
10348;BME280;5220;43.192;23.284;2023-04-08T05:46:57;97201.50;;;7.71;100.00
10348;BME280;5220;43.192;23.284;2023-04-08T05:49:24;97207.72;;;7.82;100.00
10348;BME280;5220;43.192;23.284;2023-04-08T05:51:51;97196.38;;;7.99;100.00
10348;BME280;5220;43.192;23.284;2023-04-08T05:54:18;97198.06;;;8.14;100.00
10348;BME280;5220;43.192;23.284;2023-04-08T05:56:44;97194.69;;;8.28;100.00
10348;BME280;5220;43.192;23.284;2023-04-08T05:59:14;97193.78;;;8.43;100.00
10348;BME280;5220;43.192;23.284;2023-04-08T06:01:41;97199.31;;;8.37;100.00
10348;BME280;5220;43.192;23.284;2023-04-08T06:04:08;97195.88;;;8.64;100.00
10348;BME280;5220;43.192;23.284;2023-04-08T06:06:36;97195.03;;;8.78;100.00
10348;BME280;5220;43.192;23.284;2023-04-08T06:09:03;97197.16;;;8.86;100.00
10348;BME280;5220;43.192;23.284;2023-04-08T06:11:30;97196.31;;;8.99;100.00
10348;BME280;5220;43.192;23.284;2023-04-08T06:13:57;97195.59;;;9.10;100.00
10348;BME280;5220;43.192;23.284;2023-04-08T06:16:25;97201.88;;;9.20;100.00
10348;BME280;5220;43.192;23.284;2023-04-08T06:18:52;97195.97;;;9.18;100.00
10348;BME280;5220;43.192;23.284;2023-04-08T06:21:18;97199.63;;;9.28;100.00
10348;BME280;5220;43.192;23.284;2023-04-08T06:23:45;97204.56;;;9.18;100.00
10348;BME280;5220;43.192;23.284;2023-04-08T06:26:12;97196.31;;;9.26;100.00
10348;BME280;5220;43.192;23.284;2023-04-08T06:28:39;97200.03;;;9.22;100.00
10348;BME280;5220;43.192;23.284;2023-04-08T06:31:05;97204.81;;;9.28;100.00
10348;BME280;5220;43.192;23.284;2023-04-08T06:33:33;97204.97;;;9.39;100.00
10348;BME280;5220;43.192;23.284;2023-04-08T06:36:01;97202.91;;;9.44;100.00
10348;BME280;5220;43.192;23.284;2023-04-08T06:38:28;97205.41;;;9.46;100.00
10348;BME280;5220;43.192;23.284;2023-04-08T06:40:55;97199.47;;;9.44;100.00
10348;BME280;5220;43.192;23.284;2023-04-08T06:43:22;97199.75;;;9.27;100.00
10348;BME280;5220;43.192;23.284;2023-04-08T06:45:49;97211.22;;;8.96;100.00
10348;BME280;5220;43.192;23.284;2023-04-08T06:48:16;97215.06;;;9.17;100.00
10348;BME280;5220;43.192;23.284;2023-04-08T06:50:44;97217.38;;;9.48;100.00
10348;BME280;5220;43.192;23.284;2023-04-08T06:53:11;97220.53;;;9.66;100.00
10348;BME280;5220;43.192;23.284;2023-04-08T06:55:37;97208.19;;;9.69;100.00
10348;BME280;5220;43.192;23.284;2023-04-08T06:58:04;97215.28;;;9.80;100.00
10348;BME280;5220;43.192;23.284;2023-04-08T07:00:31;97215.56;;;9.76;100.00
10348;BME280;5220;43.192;23.284;2023-04-08T07:02:58;97219.09;;;9.74;100.00
10348;BME280;5220;43.192;23.284;2023-04-08T07:05:25;97214.78;;;10.00;100.00
10348;BME280;5220;43.192;23.284;2023-04-08T07:07:53;97216.38;;;10.15;100.00
10348;BME280;5220;43.192;23.284;2023-04-08T07:10:20;97219.22;;;10.25;100.00
10348;BME280;5220;43.192;23.284;2023-04-08T07:12:46;97221.81;;;10.38;100.00
10348;BME280;5220;43.192;23.284;2023-04-08T07:15:13;97225.88;;;10.42;99.18
10348;BME280;5220;43.192;23.284;2023-04-08T07:17:40;97229.19;;;10.31;97.61
10348;BME280;5220;43.192;23.284;2023-04-08T07:20:08;97223.69;;;10.36;98.80
10348;BME280;5220;43.192;23.284;2023-04-08T07:22:35;97228.28;;;10.45;93.71
10348;BME280;5220;43.192;23.284;2023-04-08T07:25:03;97224.53;;;10.49;97.36
10348;BME280;5220;43.192;23.284;2023-04-08T07:27:32;97223.97;;;10.18;99.72
10348;BME280;5220;43.192;23.284;2023-04-08T07:29:59;97228.16;;;10.46;97.57
10348;BME280;5220;43.192;23.284;2023-04-08T07:32:27;97235.44;;;10.54;97.11
10348;BME280;5220;43.192;23.284;2023-04-08T07:34:53;97232.31;;;10.61;97.70
10348;BME280;5220;43.192;23.284;2023-04-08T07:37:20;97229.53;;;10.27;99.97
10348;BME280;5220;43.192;23.284;2023-04-08T07:39:47;97228.91;;;10.48;100.00
10348;BME280;5220;43.192;23.284;2023-04-08T07:42:15;97230.53;;;10.49;100.00
10348;BME280;5220;43.192;23.284;2023-04-08T07:44:42;97239.31;;;10.48;99.40
10348;BME280;5220;43.192;23.284;2023-04-08T07:47:09;97237.53;;;10.49;100.00
10348;BME280;5220;43.192;23.284;2023-04-08T07:49:36;97245.22;;;10.63;100.00
10348;BME280;5220;43.192;23.284;2023-04-08T07:52:03;97242.81;;;10.72;100.00
10348;BME280;5220;43.192;23.284;2023-04-08T07:54:30;97248.44;;;10.66;97.85
10348;BME280;5220;43.192;23.284;2023-04-08T07:56:58;97247.50;;;10.67;100.00
10348;BME280;5220;43.192;23.284;2023-04-08T07:59:27;97247.88;;;10.87;99.07
10348;BME280;5220;43.192;23.284;2023-04-08T08:01:54;97256.00;;;10.95;97.33
10348;BME280;5220;43.192;23.284;2023-04-08T08:04:21;97250.47;;;10.99;100.00
10348;BME280;5220;43.192;23.284;2023-04-08T08:06:50;97255.38;;;11.04;100.00
10348;BME280;5220;43.192;23.284;2023-04-08T08:09:16;97258.16;;;11.13;99.36
10348;BME280;5220;43.192;23.284;2023-04-08T08:11:43;97259.50;;;11.19;100.00
10348;BME280;5220;43.192;23.284;2023-04-08T08:14:10;97265.34;;;11.10;97.41
10348;BME280;5220;43.192;23.284;2023-04-08T08:16:39;97259.91;;;11.25;95.48
10348;BME280;5220;43.192;23.284;2023-04-08T08:19:06;97264.66;;;11.31;96.52
10348;BME280;5220;43.192;23.284;2023-04-08T08:21:35;97260.03;;;11.48;97.87
10348;BME280;5220;43.192;23.284;2023-04-08T08:24:03;97256.41;;;11.61;96.09
10348;BME280;5220;43.192;23.284;2023-04-08T08:26:30;97264.44;;;11.71;95.94
10348;BME280;5220;43.192;23.284;2023-04-08T08:28:57;97267.50;;;11.28;95.35
10348;BME280;5220;43.192;23.284;2023-04-08T08:31:24;97261.28;;;11.55;96.93
10348;BME280;5220;43.192;23.284;2023-04-08T08:33:52;97261.84;;;11.58;97.61
10348;BME280;5220;43.192;23.284;2023-04-08T08:36:18;97264.75;;;11.66;95.24
10348;BME280;5220;43.192;23.284;2023-04-08T08:38:46;97260.63;;;11.88;97.03
10348;BME280;5220;43.192;23.284;2023-04-08T08:41:12;97266.13;;;11.36;99.76
10348;BME280;5220;43.192;23.284;2023-04-08T08:43:40;97267.50;;;11.28;100.00
10348;BME280;5220;43.192;23.284;2023-04-08T08:46:09;97265.69;;;11.42;100.00
10348;BME280;5220;43.192;23.284;2023-04-08T08:48:36;97267.66;;;11.74;100.00
10348;BME280;5220;43.192;23.284;2023-04-08T08:51:09;97265.19;;;11.73;97.38
10348;BME280;5220;43.192;23.284;2023-04-08T08:53:36;97262.38;;;11.87;95.75
10348;BME280;5220;43.192;23.284;2023-04-08T08:56:03;97279.50;;;12.02;97.01
10348;BME280;5220;43.192;23.284;2023-04-08T08:58:30;97277.44;;;12.18;94.88
10348;BME280;5220;43.192;23.284;2023-04-08T09:00:57;97267.59;;;12.22;93.14
10348;BME280;5220;43.192;23.284;2023-04-08T09:03:25;97278.94;;;12.10;100.00
10348;BME280;5220;43.192;23.284;2023-04-08T09:05:54;97268.84;;;12.05;93.48
10348;BME280;5220;43.192;23.284;2023-04-08T09:08:27;97276.44;;;12.08;90.87
10348;BME280;5220;43.192;23.284;2023-04-08T09:10:55;97280.09;;;11.58;93.99
10348;BME280;5220;43.192;23.284;2023-04-08T09:13:22;97278.59;;;11.79;98.81
10348;BME280;5220;43.192;23.284;2023-04-08T09:16:05;97281.09;;;12.05;99.00
10348;BME280;5220;43.192;23.284;2023-04-08T09:18:34;97285.16;;;12.20;97.55
10348;BME280;5220;43.192;23.284;2023-04-08T09:21:01;97282.16;;;12.13;94.71
10348;BME280;5220;43.192;23.284;2023-04-08T09:23:41;97279.81;;;12.21;92.27
10348;BME280;5220;43.192;23.284;2023-04-08T09:26:08;97276.13;;;12.24;92.81
10348;BME280;5220;43.192;23.284;2023-04-08T09:28:35;97262.78;;;12.39;90.83
10348;BME280;5220;43.192;23.284;2023-04-08T09:31:17;97271.81;;;12.47;91.64
10348;BME280;5220;43.192;23.284;2023-04-08T09:33:44;97270.53;;;12.06;92.06
10348;BME280;5220;43.192;23.284;2023-04-08T09:36:11;97270.75;;;12.38;96.13
10348;BME280;5220;43.192;23.284;2023-04-08T09:38:40;97270.97;;;12.46;87.99
10348;BME280;5220;43.192;23.284;2023-04-08T09:41:07;97261.47;;;12.34;95.69
10348;BME280;5220;43.192;23.284;2023-04-08T09:43:39;97264.13;;;12.45;89.79
10348;BME280;5220;43.192;23.284;2023-04-08T09:46:10;97269.69;;;12.52;84.86
10348;BME280;5220;43.192;23.284;2023-04-08T09:48:39;97254.75;;;12.65;83.87
10348;BME280;5220;43.192;23.284;2023-04-08T09:51:11;97261.66;;;12.77;87.94
10348;BME280;5220;43.192;23.284;2023-04-08T09:53:46;97262.31;;;12.34;83.35
10348;BME280;5220;43.192;23.284;2023-04-08T09:56:14;97255.25;;;12.81;81.81
10348;BME280;5220;43.192;23.284;2023-04-08T09:58:50;97261.78;;;12.75;81.18
10348;BME280;5220;43.192;23.284;2023-04-08T10:01:23;97261.66;;;12.66;79.66
10348;BME280;5220;43.192;23.284;2023-04-08T10:03:53;97256.94;;;12.82;81.10
10348;BME280;5220;43.192;23.284;2023-04-08T10:06:26;97252.75;;;12.90;85.77
10348;BME280;5220;43.192;23.284;2023-04-08T10:08:55;97267.91;;;12.41;91.61
10348;BME280;5220;43.192;23.284;2023-04-08T10:11:22;97263.47;;;12.19;96.49
10348;BME280;5220;43.192;23.284;2023-04-08T10:13:49;97261.13;;;12.38;96.52
10348;BME280;5220;43.192;23.284;2023-04-08T10:16:21;97260.69;;;12.56;98.72
10348;BME280;5220;43.192;23.284;2023-04-08T10:18:50;97262.16;;;12.14;99.66
10348;BME280;5220;43.192;23.284;2023-04-08T10:21:36;97255.09;;;12.03;99.52
10348;BME280;5220;43.192;23.284;2023-04-08T10:24:08;97253.78;;;11.98;100.00
10348;BME280;5220;43.192;23.284;2023-04-08T10:26:38;97257.78;;;12.25;99.28
10348;BME280;5220;43.192;23.284;2023-04-08T10:32:08;97263.66;;;12.51;97.77
10348;BME280;5220;43.192;23.284;2023-04-08T10:34:52;97261.00;;;12.40;95.64
10348;BME280;5220;43.192;23.284;2023-04-08T10:37:19;97248.13;;;12.72;95.62
10348;BME280;5220;43.192;23.284;2023-04-08T10:39:49;97250.50;;;12.75;96.27
10348;BME280;5220;43.192;23.284;2023-04-08T10:42:17;97250.38;;;12.99;89.03
10348;BME280;5220;43.192;23.284;2023-04-08T10:44:44;97248.47;;;12.89;87.84
10348;BME280;5220;43.192;23.284;2023-04-08T10:47:11;97257.03;;;12.91;86.34
10348;BME280;5220;43.192;23.284;2023-04-08T10:49:38;97258.09;;;12.89;92.30
10348;BME280;5220;43.192;23.284;2023-04-08T10:52:06;97253.13;;;12.97;91.89
10348;BME280;5220;43.192;23.284;2023-04-08T10:54:34;97259.03;;;12.66;90.06
10348;BME280;5220;43.192;23.284;2023-04-08T10:57:02;97251.31;;;12.53;86.44
10348;BME280;5220;43.192;23.284;2023-04-08T10:59:30;97253.94;;;12.75;87.30
10348;BME280;5220;43.192;23.284;2023-04-08T11:01:57;97259.59;;;12.47;89.18
10348;BME280;5220;43.192;23.284;2023-04-08T11:04:25;97256.53;;;12.64;91.29
10348;BME280;5220;43.192;23.284;2023-04-08T11:06:52;97254.06;;;12.74;89.22
10348;BME280;5220;43.192;23.284;2023-04-08T11:09:19;97264.03;;;12.80;89.73
10348;BME280;5220;43.192;23.284;2023-04-08T11:11:46;97248.94;;;12.61;96.41
10348;BME280;5220;43.192;23.284;2023-04-08T11:14:15;97249.66;;;12.74;97.18
10348;BME280;5220;43.192;23.284;2023-04-08T11:16:46;97258.00;;;12.79;93.84
10348;BME280;5220;43.192;23.284;2023-04-08T11:19:13;97256.06;;;12.48;100.00
10348;BME280;5220;43.192;23.284;2023-04-08T11:21:40;97255.47;;;12.89;95.85
10348;BME280;5220;43.192;23.284;2023-04-08T11:24:10;97245.53;;;12.94;94.41
10348;BME280;5220;43.192;23.284;2023-04-08T11:26:37;97245.50;;;13.05;90.43
10348;BME280;5220;43.192;23.284;2023-04-08T11:29:05;97246.13;;;13.20;84.58
10348;BME280;5220;43.192;23.284;2023-04-08T11:31:36;97233.53;;;13.25;84.59
10348;BME280;5220;43.192;23.284;2023-04-08T11:34:02;97231.53;;;12.95;84.56
10348;BME280;5220;43.192;23.284;2023-04-08T11:36:29;97235.69;;;12.98;84.72
10348;BME280;5220;43.192;23.284;2023-04-08T11:38:56;97239.84;;;13.22;84.25
10348;BME280;5220;43.192;23.284;2023-04-08T11:41:23;97237.81;;;13.26;78.20
10348;BME280;5220;43.192;23.284;2023-04-08T11:43:54;97231.97;;;13.33;83.24
10348;BME280;5220;43.192;23.284;2023-04-08T11:46:22;97236.84;;;13.38;75.17
10348;BME280;5220;43.192;23.284;2023-04-08T11:49:01;97234.31;;;13.48;77.38
10348;BME280;5220;43.192;23.284;2023-04-08T11:51:28;97231.50;;;13.28;75.94
10348;BME280;5220;43.192;23.284;2023-04-08T11:53:55;97231.09;;;13.55;70.93
10348;BME280;5220;43.192;23.284;2023-04-08T11:56:23;97227.69;;;13.43;77.65
10348;BME280;5220;43.192;23.284;2023-04-08T11:58:50;97228.66;;;13.31;77.90
10348;BME280;5220;43.192;23.284;2023-04-08T12:01:18;97222.94;;;13.37;76.12
10348;BME280;5220;43.192;23.284;2023-04-08T12:03:58;97220.75;;;13.54;77.84
10348;BME280;5220;43.192;23.284;2023-04-08T12:06:27;97224.03;;;13.24;83.92
10348;BME280;5220;43.192;23.284;2023-04-08T12:08:56;97220.59;;;13.12;84.43
10348;BME280;5220;43.192;23.284;2023-04-08T12:11:23;97218.09;;;13.22;84.48
10348;BME280;5220;43.192;23.284;2023-04-08T12:13:50;97205.97;;;13.32;85.23
10348;BME280;5220;43.192;23.284;2023-04-08T12:16:17;97201.09;;;13.38;81.57
10348;BME280;5220;43.192;23.284;2023-04-08T12:18:44;97207.59;;;13.44;81.23
10348;BME280;5220;43.192;23.284;2023-04-08T12:21:12;97208.22;;;13.36;83.26
10348;BME280;5220;43.192;23.284;2023-04-08T12:23:40;97209.22;;;13.13;86.79
10348;BME280;5220;43.192;23.284;2023-04-08T12:26:07;97203.97;;;13.02;88.50
10348;BME280;5220;43.192;23.284;2023-04-08T12:28:33;97207.66;;;13.00;89.69
10348;BME280;5220;43.192;23.284;2023-04-08T12:31:01;97212.41;;;12.94;91.18
10348;BME280;5220;43.192;23.284;2023-04-08T12:33:27;97213.25;;;12.62;96.66
10348;BME280;5220;43.192;23.284;2023-04-08T12:35:54;97214.88;;;12.52;97.44
10348;BME280;5220;43.192;23.284;2023-04-08T12:38:22;97219.00;;;12.21;100.00
10348;BME280;5220;43.192;23.284;2023-04-08T12:40:50;97220.38;;;12.03;100.00
10348;BME280;5220;43.192;23.284;2023-04-08T12:43:17;97222.09;;;12.26;100.00
10348;BME280;5220;43.192;23.284;2023-04-08T12:45:44;97212.50;;;12.26;100.00
10348;BME280;5220;43.192;23.284;2023-04-08T12:48:11;97215.91;;;12.27;100.00
10348;BME280;5220;43.192;23.284;2023-04-08T12:50:37;97218.50;;;12.16;100.00
10348;BME280;5220;43.192;23.284;2023-04-08T12:53:04;97218.84;;;12.11;100.00
10348;BME280;5220;43.192;23.284;2023-04-08T12:55:31;97221.72;;;11.73;100.00
10348;BME280;5220;43.192;23.284;2023-04-08T12:57:59;97230.50;;;11.36;100.00
10348;BME280;5220;43.192;23.284;2023-04-08T13:00:26;97234.47;;;10.93;100.00
10348;BME280;5220;43.192;23.284;2023-04-08T13:02:52;97233.81;;;11.02;100.00
10348;BME280;5220;43.192;23.284;2023-04-08T13:05:19;97237.09;;;10.67;100.00
10348;BME280;5220;43.192;23.284;2023-04-08T13:07:46;97240.44;;;10.44;100.00